createdAt,value
2022-09-06T00:02:06.443Z,38.20
2022-09-06T00:04:32.859Z,38.11
2022-09-06T00:06:59.228Z,38.12
2022-09-06T00:09:25.601Z,38.03
2022-09-06T00:11:51.988Z,37.88
2022-09-06T00:14:18.367Z,38.01
2022-09-06T00:16:44.788Z,38.16
2022-09-06T00:19:11.165Z,38.16
2022-09-06T00:21:37.570Z,38.17
2022-09-06T00:24:03.971Z,38.21
2022-09-06T00:26:30.347Z,38.09
2022-09-06T00:28:56.725Z,38.15
2022-09-06T00:31:23.201Z,38.19
2022-09-06T00:33:49.487Z,38.33
2022-09-06T00:36:15.871Z,38.25
2022-09-06T00:38:42.248Z,38.31
2022-09-06T00:41:08.634Z,38.31
2022-09-06T00:43:35.013Z,38.12
2022-09-06T00:46:01.443Z,38.16
2022-09-06T00:48:27.836Z,38.38
2022-09-06T00:50:54.163Z,38.22
2022-09-06T00:53:20.572Z,38.09
2022-09-06T00:55:46.956Z,38.19
2022-09-06T00:58:13.348Z,38.34
2022-09-06T01:00:39.726Z,38.33
2022-09-06T01:03:06.117Z,37.98
2022-09-06T01:05:32.501Z,38.47
2022-09-06T01:07:59.825Z,38.36
2022-09-06T01:10:25.268Z,38.25
2022-09-06T01:12:51.654Z,38.21
2022-09-06T01:15:18.035Z,38.42
2022-09-06T01:17:44.408Z,38.26
2022-09-06T01:20:10.796Z,38.22
2022-09-06T01:22:39.634Z,38.34
2022-09-06T01:25:03.559Z,38.35
2022-09-06T01:27:29.948Z,38.38
2022-09-06T01:29:56.322Z,38.61
2022-09-06T01:32:22.733Z,38.32
2022-09-06T01:34:49.137Z,38.47
2022-09-06T01:37:15.668Z,38.41
2022-09-06T01:39:42.110Z,38.32
2022-09-06T01:42:08.439Z,38.44
2022-09-06T01:44:34.813Z,38.36
2022-09-06T01:47:01.207Z,38.58
2022-09-06T01:49:27.587Z,38.27
2022-09-06T01:51:53.997Z,38.21
2022-09-06T01:54:20.374Z,38.74
2022-09-06T01:56:46.752Z,38.77
2022-09-06T01:59:13.169Z,38.36
2022-09-06T02:01:39.668Z,38.22
2022-09-06T02:04:05.984Z,38.18
2022-09-06T02:06:32.368Z,38.11
2022-09-06T02:08:58.756Z,37.96
2022-09-06T02:11:25.157Z,38.06
2022-09-06T02:13:51.534Z,38.03
2022-09-06T02:16:17.999Z,37.94
2022-09-06T02:18:44.395Z,37.91
2022-09-06T02:21:10.768Z,37.90
2022-09-06T02:23:37.200Z,37.93
2022-09-06T02:26:03.573Z,37.96
2022-09-06T02:28:29.967Z,37.84
2022-09-06T02:30:56.386Z,37.75
2022-09-06T02:33:22.750Z,37.80
2022-09-06T02:35:49.158Z,37.85
2022-09-06T02:38:15.538Z,37.71
2022-09-06T02:40:41.921Z,37.66
2022-09-06T02:43:08.299Z,37.66
2022-09-06T02:45:34.693Z,37.61
2022-09-06T02:48:01.087Z,37.70
2022-09-06T02:50:27.476Z,37.61
2022-09-06T02:52:53.864Z,37.62
2022-09-06T02:55:20.239Z,37.65
2022-09-06T02:57:46.626Z,37.60
2022-09-06T03:00:13.046Z,37.59
2022-09-06T03:02:39.646Z,37.59
2022-09-06T03:05:05.912Z,37.60
2022-09-06T03:07:32.409Z,37.59
2022-09-06T03:09:58.780Z,37.64
2022-09-06T03:12:25.172Z,37.62
2022-09-06T03:14:54.831Z,37.64
2022-09-06T03:17:17.938Z,37.62
2022-09-06T03:19:44.309Z,37.64
2022-09-06T03:22:10.705Z,37.60
2022-09-06T03:24:37.084Z,37.57
2022-09-06T03:27:03.466Z,37.60
2022-09-06T03:29:29.836Z,37.59
2022-09-06T03:31:56.351Z,37.55
2022-09-06T03:34:22.730Z,37.53
2022-09-06T03:36:49.120Z,37.56
2022-09-06T03:39:16.702Z,37.56
2022-09-06T03:41:41.883Z,37.51
2022-09-06T03:44:08.265Z,37.63
2022-09-06T03:46:34.728Z,37.63
2022-09-06T03:49:02.093Z,37.57
2022-09-06T03:51:27.525Z,37.54
2022-09-06T03:53:53.911Z,37.58
2022-09-06T03:56:20.279Z,37.51
2022-09-06T03:58:46.657Z,37.59
2022-09-06T04:01:13.112Z,37.52
2022-09-06T04:03:39.437Z,37.52
2022-09-06T04:06:05.829Z,37.51
2022-09-06T04:08:32.213Z,37.47
2022-09-06T04:10:58.600Z,37.42
2022-09-06T04:13:24.988Z,37.44
2022-09-06T04:15:51.379Z,37.47
2022-09-06T04:18:17.758Z,37.50
2022-09-06T04:20:44.144Z,37.46
2022-09-06T04:23:10.520Z,37.45
2022-09-06T04:25:36.908Z,37.42
2022-09-06T04:28:03.280Z,37.43
2022-09-06T04:30:29.672Z,37.40
2022-09-06T04:32:56.048Z,37.34
2022-09-06T04:35:22.437Z,37.42
2022-09-06T04:37:48.906Z,37.37
2022-09-06T04:40:15.290Z,37.41
2022-09-06T04:42:41.669Z,37.31
2022-09-06T04:45:08.111Z,37.36
2022-09-06T04:47:34.472Z,37.32
2022-09-06T04:50:00.858Z,37.37
2022-09-06T04:52:30.195Z,37.31
2022-09-06T04:54:53.615Z,37.27
2022-09-06T04:57:20.030Z,37.28
2022-09-06T04:59:46.407Z,37.31
2022-09-06T05:02:12.876Z,37.29
2022-09-06T05:04:39.264Z,37.29
2022-09-06T05:07:05.633Z,37.28
2022-09-06T05:09:32.131Z,37.32
2022-09-06T05:11:58.510Z,37.35
2022-09-06T05:14:25.000Z,37.24
2022-09-06T05:16:51.450Z,37.32
2022-09-06T05:19:17.792Z,37.27
2022-09-06T05:21:44.168Z,37.23
2022-09-06T05:24:10.553Z,37.22
2022-09-06T05:26:36.959Z,37.30
2022-09-06T05:29:03.344Z,37.25
2022-09-06T05:31:29.756Z,37.22
2022-09-06T05:33:56.107Z,37.18
2022-09-06T05:36:22.488Z,37.20
2022-09-06T05:38:48.892Z,37.22
2022-09-06T05:41:15.276Z,37.19
2022-09-06T05:43:41.659Z,37.13
2022-09-06T05:46:08.096Z,37.13
2022-09-06T05:48:36.991Z,37.14
2022-09-06T05:51:00.884Z,37.17
2022-09-06T05:53:27.256Z,37.14
2022-09-06T05:55:53.647Z,37.09
2022-09-06T05:58:20.020Z,37.12
2022-09-06T06:00:46.422Z,37.19
2022-09-06T06:03:12.780Z,37.11
2022-09-06T06:05:39.291Z,37.15
2022-09-06T06:08:05.680Z,37.11
2022-09-06T06:10:34.357Z,37.16
2022-09-06T06:12:58.475Z,37.09
2022-09-06T06:15:25.117Z,37.13
2022-09-06T06:17:51.490Z,37.07
2022-09-06T06:20:17.878Z,37.12
2022-09-06T06:22:44.285Z,37.05
2022-09-06T06:25:12.595Z,37.07
2022-09-06T06:27:37.057Z,37.04
2022-09-06T06:30:03.512Z,37.01
2022-09-06T06:32:29.893Z,36.97
2022-09-06T06:34:56.276Z,36.97
2022-09-06T06:37:22.660Z,36.96
2022-09-06T06:39:49.068Z,36.96
2022-09-06T06:42:15.425Z,36.87
2022-09-06T06:44:41.910Z,36.90
2022-09-06T06:47:08.291Z,36.87
2022-09-06T06:49:34.942Z,36.95
2022-09-06T06:52:01.342Z,36.87
2022-09-06T06:54:27.724Z,36.89
2022-09-06T06:56:54.120Z,36.92
2022-09-06T06:59:22.483Z,36.95
2022-09-06T07:01:48.991Z,37.01
2022-09-06T07:04:15.246Z,37.00
2022-09-06T07:09:08.091Z,37.02
2022-09-06T07:11:34.493Z,37.00
2022-09-06T07:14:00.874Z,37.06
2022-09-06T07:16:27.295Z,37.00
2022-09-06T07:18:53.635Z,37.07
2022-09-06T07:26:12.849Z,37.05
2022-09-06T07:28:39.345Z,37.03
2022-09-06T07:31:06.050Z,37.01
2022-09-06T07:33:32.211Z,36.94
2022-09-06T07:35:58.586Z,36.97
2022-09-06T07:38:24.978Z,36.97
2022-09-06T07:40:51.378Z,36.93
2022-09-06T07:43:17.743Z,36.92
2022-09-06T07:45:44.138Z,36.85
2022-09-06T07:48:10.515Z,36.81
2022-09-06T07:50:54.620Z,36.84
2022-09-06T07:55:29.652Z,36.87
2022-09-06T07:57:56.037Z,36.87
2022-09-06T08:00:22.435Z,36.97
2022-09-06T08:02:48.797Z,37.00
2022-09-06T08:07:41.563Z,36.93
2022-09-06T08:10:07.950Z,36.96
2022-09-06T08:12:34.331Z,37.03
2022-09-06T08:15:00.723Z,36.93
2022-09-06T08:17:27.110Z,36.90
2022-09-06T08:19:53.524Z,36.90
2022-09-06T08:22:19.937Z,36.90
2022-09-06T08:24:46.313Z,36.85
2022-09-06T08:27:12.752Z,36.84
2022-09-06T08:29:39.128Z,36.84
2022-09-06T08:32:05.516Z,36.88
2022-09-06T08:34:32.021Z,36.91
2022-09-06T08:36:58.400Z,36.87
2022-09-06T08:39:24.850Z,36.85
2022-09-06T08:41:51.195Z,36.84
2022-09-06T08:46:44.082Z,36.84
2022-09-06T08:49:10.392Z,36.82
2022-09-06T08:51:38.625Z,36.77
2022-09-06T08:54:03.155Z,36.73
2022-09-06T08:56:29.536Z,36.75
2022-09-06T08:58:55.919Z,36.74
2022-09-06T09:01:22.300Z,36.74
2022-09-06T09:03:48.681Z,36.74
2022-09-06T09:06:15.077Z,36.74
2022-09-06T09:08:41.486Z,36.70
2022-09-06T09:11:07.909Z,36.70
2022-09-06T09:13:34.293Z,36.71
2022-09-06T09:16:00.715Z,36.75
2022-09-06T09:18:27.197Z,36.71
2022-09-06T09:20:53.495Z,36.67
2022-09-06T09:23:19.871Z,36.66
2022-09-06T09:25:46.256Z,36.63
2022-09-06T09:28:12.640Z,36.69
2022-09-06T09:33:05.418Z,36.64
2022-09-06T09:35:31.834Z,36.62
2022-09-06T09:38:05.029Z,36.58
2022-09-06T09:40:24.620Z,36.55
2022-09-06T09:42:50.993Z,36.45
2022-09-06T09:45:17.464Z,36.45
2022-09-06T09:47:43.835Z,36.38
2022-09-06T09:50:10.227Z,36.29
2022-09-06T09:52:36.613Z,36.30
2022-09-06T09:55:02.995Z,36.22
2022-09-06T09:57:29.417Z,36.18
2022-09-06T09:59:55.781Z,36.17
2022-09-06T10:02:22.319Z,36.06
2022-09-06T10:04:48.700Z,36.03
2022-09-06T10:07:15.078Z,35.94
2022-09-06T10:09:41.469Z,35.81
2022-09-06T10:12:07.921Z,35.71
2022-09-06T10:14:34.315Z,35.65
2022-09-06T10:17:00.796Z,35.55
2022-09-06T10:19:27.325Z,35.34
2022-09-06T10:21:53.709Z,35.23
2022-09-06T10:24:27.736Z,35.15
2022-09-06T10:26:46.465Z,35.07
2022-09-06T10:29:12.855Z,34.97
2022-09-06T10:31:39.322Z,34.88
2022-09-06T10:34:05.623Z,34.75
2022-09-06T10:36:32.005Z,34.57
2022-09-06T10:39:03.103Z,34.49
2022-09-06T10:41:24.862Z,34.40
2022-09-06T10:43:51.250Z,34.29
2022-09-06T10:46:17.666Z,34.21
2022-09-06T10:48:44.039Z,34.12
2022-09-06T10:51:10.452Z,34.04
2022-09-06T10:53:36.835Z,33.91
2022-09-06T10:56:03.211Z,33.86
2022-09-06T10:58:29.779Z,33.74
2022-09-06T11:00:55.978Z,33.62
2022-09-06T11:05:48.780Z,33.49
2022-09-06T11:10:41.652Z,33.35
2022-09-06T11:13:08.040Z,33.28
2022-09-06T11:15:34.463Z,33.20
2022-09-06T11:18:00.819Z,33.03
2022-09-06T11:20:31.367Z,33.01
2022-09-06T11:22:53.706Z,32.90
2022-09-06T11:25:20.068Z,32.82
2022-09-06T11:27:46.562Z,32.71
2022-09-06T11:30:12.945Z,32.72
2022-09-06T11:32:39.325Z,32.60
2022-09-06T11:35:05.709Z,32.51
2022-09-06T11:37:32.091Z,32.43
2022-09-06T11:42:24.933Z,32.32
2022-09-06T11:44:51.316Z,32.24
2022-09-06T11:47:17.702Z,32.20
2022-09-06T11:49:44.095Z,32.11
2022-09-06T11:52:10.476Z,32.00
2022-09-06T11:54:36.861Z,31.90
2022-09-06T11:57:03.252Z,31.86
2022-09-06T11:59:29.633Z,31.84
2022-09-06T12:01:56.047Z,31.86
2022-09-06T12:04:22.428Z,31.94
2022-09-06T12:06:48.858Z,31.96
2022-09-06T12:09:15.233Z,32.08
2022-09-06T12:11:41.795Z,32.01
2022-09-06T12:14:08.181Z,31.96
2022-09-06T12:16:34.567Z,31.89
2022-09-06T12:19:00.954Z,31.85
2022-09-06T12:21:27.331Z,31.78
2022-09-06T12:23:53.718Z,31.75
2022-09-06T12:26:20.118Z,31.93
2022-09-06T12:28:46.500Z,31.95
2022-09-06T12:31:18.127Z,31.96
2022-09-06T12:33:39.283Z,32.07
2022-09-06T12:36:07.790Z,32.18
2022-09-06T12:38:32.187Z,32.16
2022-09-06T12:40:58.757Z,32.19
2022-09-06T12:43:25.005Z,32.19
2022-09-06T12:45:51.390Z,32.13
2022-09-06T12:48:17.781Z,32.14
2022-09-06T12:50:44.158Z,32.11
2022-09-06T12:53:12.646Z,32.11
2022-09-06T12:55:36.967Z,32.06
2022-09-06T12:58:05.019Z,32.04
2022-09-06T13:00:29.743Z,32.07
2022-09-06T13:02:56.236Z,32.06
2022-09-06T13:05:22.544Z,31.95
2022-09-06T13:07:49.135Z,30.08
2022-09-06T13:10:15.614Z,29.11
2022-09-06T13:12:41.996Z,29.07
2022-09-06T13:15:08.387Z,28.56
2022-09-06T13:17:34.786Z,28.40
2022-09-06T13:20:01.205Z,28.35
2022-09-06T13:22:27.549Z,28.35
2022-09-06T13:24:53.935Z,28.32
2022-09-06T13:27:20.317Z,28.40
2022-09-06T13:29:46.711Z,28.25
2022-09-06T13:32:13.208Z,28.34
2022-09-06T13:34:39.619Z,28.37
2022-09-06T13:37:06.016Z,28.53
2022-09-06T13:39:32.496Z,28.36
2022-09-06T13:41:58.812Z,28.30
2022-09-06T13:44:25.275Z,28.31
2022-09-06T13:46:51.656Z,28.60
2022-09-06T13:49:18.044Z,28.89
2022-09-06T13:51:44.422Z,31.05
2022-09-06T13:54:10.902Z,31.33
2022-09-06T13:56:37.304Z,31.66
2022-09-06T13:59:03.692Z,31.75
2022-09-06T14:01:30.191Z,31.76
2022-09-06T14:03:58.713Z,31.88
2022-09-06T14:06:25.118Z,31.99
2022-09-06T14:09:08.250Z,32.05
2022-09-06T14:11:17.906Z,32.09
2022-09-06T14:13:44.315Z,32.12
2022-09-06T14:16:10.742Z,32.07
2022-09-06T14:18:37.103Z,31.69
2022-09-06T14:21:03.489Z,31.30
2022-09-06T14:23:29.903Z,30.98
2022-09-06T14:25:56.284Z,30.76
2022-09-06T14:28:22.813Z,30.60
2022-09-06T14:30:49.102Z,30.53
2022-09-06T14:33:15.457Z,30.52
2022-09-06T14:35:41.841Z,30.88
2022-09-06T14:38:08.222Z,31.24
2022-09-06T14:40:34.609Z,31.56
2022-09-06T14:43:01.006Z,31.74
2022-09-06T14:45:27.390Z,31.72
2022-09-06T14:47:53.845Z,31.95
2022-09-06T14:50:20.225Z,32.03
2022-09-06T14:52:46.610Z,31.95
2022-09-06T14:55:13.000Z,32.07
2022-09-06T14:57:39.502Z,32.06
2022-09-06T15:00:05.877Z,32.09
2022-09-06T15:02:32.297Z,32.07
2022-09-06T15:04:58.676Z,32.02
2022-09-06T15:07:25.134Z,32.04
2022-09-06T15:09:51.517Z,31.98
2022-09-06T15:12:17.904Z,31.95
2022-09-06T15:14:44.285Z,31.90
2022-09-06T15:17:10.670Z,31.91
2022-09-06T15:19:37.059Z,31.88
2022-09-06T15:22:03.467Z,31.91
2022-09-06T15:24:29.859Z,31.91
2022-09-06T15:26:56.294Z,31.98
2022-09-06T15:29:22.704Z,31.99
2022-09-06T15:31:49.087Z,32.10
2022-09-06T15:34:15.467Z,32.15
2022-09-06T15:36:41.863Z,32.25
2022-09-06T15:39:08.234Z,32.30
2022-09-06T15:41:34.623Z,32.43
2022-09-06T15:44:01.004Z,32.50
2022-09-06T15:46:27.449Z,32.61
2022-09-06T15:48:53.793Z,32.72
2022-09-06T15:51:20.185Z,32.84
2022-09-06T15:53:46.568Z,32.86
2022-09-06T15:56:12.986Z,32.97
2022-09-06T15:58:39.415Z,32.97
2022-09-06T16:01:05.852Z,33.01
2022-09-06T16:03:32.154Z,33.06
2022-09-06T16:08:24.984Z,33.15
2022-09-06T16:10:51.308Z,33.23
2022-09-06T16:13:17.694Z,33.26
2022-09-06T16:15:44.073Z,33.37
2022-09-06T16:18:10.454Z,33.40
2022-09-06T16:20:36.838Z,33.42
2022-09-06T16:23:03.223Z,33.48
2022-09-06T16:25:29.596Z,33.52
2022-09-06T16:27:55.983Z,33.62
2022-09-06T16:30:22.426Z,33.68
2022-09-06T16:32:48.832Z,33.73
2022-09-06T16:35:15.221Z,33.78
2022-09-06T16:37:41.632Z,33.84
2022-09-06T16:40:08.089Z,33.81
2022-09-06T16:42:34.400Z,33.87
2022-09-06T16:45:00.794Z,33.90
2022-09-06T16:47:27.208Z,33.99
2022-09-06T16:49:53.593Z,34.01
2022-09-06T16:52:19.970Z,34.08
2022-09-06T16:54:46.392Z,34.08
2022-09-06T16:57:12.746Z,34.10
2022-09-06T16:59:39.133Z,34.14
2022-09-06T17:02:05.689Z,34.19
2022-09-06T17:04:31.928Z,34.23
2022-09-06T17:06:58.297Z,34.26
2022-09-06T17:09:24.677Z,34.32
2022-09-06T17:11:51.090Z,34.34
2022-09-06T17:14:17.492Z,34.34
2022-09-06T17:16:43.943Z,34.36
2022-09-06T17:19:10.275Z,34.33
2022-09-06T17:21:36.648Z,34.36
2022-09-06T17:24:03.068Z,34.35
2022-09-06T17:26:29.416Z,34.39
2022-09-06T17:28:55.796Z,34.41
2022-09-06T17:31:25.694Z,34.45
2022-09-06T17:33:48.560Z,34.49
2022-09-06T17:36:14.942Z,34.49
2022-09-06T17:38:41.320Z,34.56
2022-09-06T17:41:07.713Z,34.57
2022-09-06T17:43:34.094Z,34.63
2022-09-06T17:46:00.531Z,34.60
2022-09-06T17:48:26.909Z,34.65
2022-09-06T17:50:54.886Z,34.71
2022-09-06T17:53:19.620Z,34.65
2022-09-06T17:55:46.007Z,34.76
2022-09-06T17:58:12.380Z,34.76
2022-09-06T18:00:38.796Z,34.73
2022-09-06T18:03:05.186Z,34.71
2022-09-06T18:05:31.578Z,34.66
2022-09-06T18:07:57.962Z,34.68
2022-09-06T18:10:24.583Z,34.71
2022-09-06T18:12:50.971Z,34.70
2022-09-06T18:15:17.431Z,34.66
2022-09-06T18:17:43.816Z,34.61
2022-09-06T18:20:10.215Z,34.61
2022-09-06T18:22:37.648Z,34.63
2022-09-06T18:25:02.986Z,34.66
2022-09-06T18:27:29.363Z,34.61
2022-09-06T18:29:55.755Z,34.65
2022-09-06T18:32:22.132Z,34.70
2022-09-06T18:34:48.511Z,34.67
2022-09-06T18:37:14.925Z,34.65
2022-09-06T18:39:41.328Z,34.58
2022-09-06T18:42:07.685Z,34.62
2022-09-06T18:44:34.086Z,34.70
2022-09-06T18:47:00.469Z,34.68
2022-09-06T18:49:26.853Z,34.69
2022-09-06T18:51:53.237Z,34.60
2022-09-06T18:54:19.622Z,34.65
2022-09-06T18:56:46.034Z,34.58
2022-09-06T18:59:12.419Z,34.58
2022-09-06T19:01:38.895Z,34.57
2022-09-06T19:04:05.195Z,34.56
2022-09-06T19:06:31.592Z,34.54
2022-09-06T19:08:58.045Z,34.53
2022-09-06T19:11:24.420Z,34.57
2022-09-06T19:13:50.810Z,34.59
2022-09-06T19:16:17.225Z,34.57
2022-09-06T19:18:43.578Z,34.55
2022-09-06T19:21:09.960Z,34.60
2022-09-06T19:23:36.350Z,34.62
2022-09-06T19:26:02.742Z,34.63
2022-09-06T19:28:29.244Z,34.68
2022-09-06T19:30:55.509Z,34.69
2022-09-06T19:33:21.893Z,34.71
2022-09-06T19:36:07.937Z,34.74
2022-09-06T19:38:14.698Z,34.72
2022-09-06T19:40:41.074Z,34.78
2022-09-06T19:43:07.489Z,34.81
2022-09-06T19:45:33.868Z,34.80
2022-09-06T19:48:00.263Z,34.84
2022-09-06T19:50:26.648Z,34.87
2022-09-06T19:52:53.039Z,34.84
2022-09-06T19:55:19.416Z,34.97
2022-09-06T19:57:45.805Z,34.97
2022-09-06T20:00:12.244Z,34.90
2022-09-06T20:02:38.646Z,35.00
2022-09-06T20:05:05.020Z,35.00
2022-09-06T20:07:31.430Z,35.07
2022-09-06T20:09:57.828Z,35.06
2022-09-06T20:12:24.264Z,35.10
2022-09-06T20:14:50.642Z,35.06
2022-09-06T20:17:33.310Z,35.11
2022-09-06T20:19:43.411Z,35.13
2022-09-06T20:22:09.801Z,35.14
2022-09-06T20:24:36.217Z,35.10
2022-09-06T20:27:02.636Z,35.18
2022-09-06T20:29:29.049Z,35.15
2022-09-06T20:31:55.490Z,35.16
2022-09-06T20:34:21.820Z,35.20
2022-09-06T20:36:48.197Z,35.23
2022-09-06T20:39:14.596Z,35.24
2022-09-06T20:41:40.956Z,35.26
2022-09-06T20:44:07.340Z,35.26
2022-09-06T20:46:33.746Z,35.27
2022-09-06T20:49:00.110Z,35.24
2022-09-06T20:51:26.609Z,35.29
2022-09-06T20:53:52.997Z,35.29
2022-09-06T20:56:19.378Z,35.33
2022-09-06T20:58:45.762Z,35.34
2022-09-06T21:01:12.239Z,35.33
2022-09-06T21:03:38.525Z,35.43
2022-09-06T21:06:04.907Z,35.44
2022-09-06T21:08:34.700Z,35.44
2022-09-06T21:10:57.670Z,35.51
2022-09-06T21:13:24.051Z,35.45
2022-09-06T21:15:50.461Z,35.38
2022-09-06T21:18:16.805Z,35.42
2022-09-06T21:20:43.300Z,35.48
2022-09-06T21:23:09.672Z,35.49
2022-09-06T21:25:36.102Z,35.62
2022-09-06T21:28:02.509Z,35.52
2022-09-06T21:30:28.894Z,35.46
2022-09-06T21:32:55.293Z,35.57
2022-09-06T21:35:21.705Z,35.68
2022-09-06T21:37:48.081Z,35.63
2022-09-06T21:40:14.467Z,35.60
2022-09-06T21:42:40.844Z,35.57
2022-09-06T21:45:07.231Z,35.69
2022-09-06T21:47:35.055Z,35.67
2022-09-06T21:49:59.999Z,35.70
2022-09-06T21:52:26.372Z,35.70
2022-09-06T21:54:52.760Z,35.68
2022-09-06T21:57:19.151Z,35.74
2022-09-06T21:59:45.543Z,35.76
2022-09-06T22:02:11.968Z,35.81
2022-09-06T22:04:38.363Z,35.81
2022-09-06T22:07:04.733Z,35.90
2022-09-06T22:09:31.251Z,35.77
2022-09-06T22:11:57.634Z,35.85
2022-09-06T22:14:24.126Z,35.81
2022-09-06T22:16:50.508Z,35.80
2022-09-06T22:19:16.887Z,35.94
2022-09-06T22:21:43.261Z,36.02
2022-09-06T22:24:09.646Z,35.94
2022-09-06T22:26:36.021Z,35.90
2022-09-06T22:29:02.624Z,35.92
2022-09-06T22:31:29.042Z,35.97
2022-09-06T22:33:55.412Z,35.91
2022-09-06T22:36:21.815Z,35.97
2022-09-06T22:38:48.210Z,36.02
2022-09-06T22:41:14.617Z,36.00
2022-09-06T22:43:41.118Z,35.97
2022-09-06T22:46:07.537Z,35.91
2022-09-06T22:48:33.881Z,36.02
2022-09-06T22:51:00.346Z,36.09
2022-09-06T22:53:26.727Z,36.02
2022-09-06T22:55:53.473Z,36.06
2022-09-06T22:58:19.885Z,36.06
2022-09-06T23:00:46.311Z,36.08
2022-09-06T23:03:12.678Z,36.08
2022-09-06T23:05:39.035Z,36.11
2022-09-06T23:08:05.422Z,36.09
2022-09-06T23:10:31.801Z,36.18
2022-09-06T23:12:58.187Z,36.11
2022-09-06T23:15:24.569Z,36.13
2022-09-06T23:17:50.951Z,36.22
2022-09-06T23:20:17.329Z,36.24
2022-09-06T23:22:43.719Z,36.25
2022-09-06T23:25:10.094Z,36.26
2022-09-06T23:27:36.479Z,36.27
2022-09-06T23:30:02.864Z,36.21
2022-09-06T23:32:29.244Z,36.22
2022-09-06T23:34:55.674Z,36.32
2022-09-06T23:37:22.055Z,36.37
2022-09-06T23:39:48.499Z,36.30
2022-09-06T23:42:14.824Z,36.35
2022-09-06T23:44:41.208Z,36.29
2022-09-06T23:47:07.588Z,36.37
2022-09-06T23:49:33.969Z,36.51
2022-09-06T23:52:00.429Z,36.50
2022-09-06T23:54:26.814Z,36.54
2022-09-06T23:56:53.194Z,36.45
2022-09-06T23:59:19.576Z,36.39
